createdAt,value
2018-12-15T00:04:20.579Z,-0.77
2018-12-15T00:09:41.571Z,-0.76
2018-12-15T00:14:43.887Z,-0.76
2018-12-15T00:19:46.145Z,-0.76
2018-12-15T00:24:48.609Z,-0.76
2018-12-15T00:29:50.913Z,-0.74
2018-12-15T00:34:53.163Z,-0.74
2018-12-15T00:39:55.529Z,-0.73
2018-12-15T00:44:57.815Z,-0.77
2018-12-15T00:50:00.045Z,-0.79
2018-12-15T00:55:02.526Z,-0.81
2018-12-15T01:00:05.087Z,-0.79
2018-12-15T01:05:07.418Z,-0.80
2018-12-15T01:10:09.645Z,-0.82
2018-12-15T01:15:12.004Z,-0.81
2018-12-15T01:20:14.281Z,-0.81
2018-12-15T01:25:16.556Z,-0.83
2018-12-15T01:30:18.870Z,-0.82
2018-12-15T01:35:21.145Z,-0.81
2018-12-15T01:40:23.383Z,-0.82
2018-12-15T01:45:25.600Z,-0.81
2018-12-15T01:50:27.810Z,-0.83
2018-12-15T01:55:30.205Z,-0.86
2018-12-15T02:00:32.483Z,-0.86
2018-12-15T02:05:34.675Z,-0.84
2018-12-15T02:10:37.073Z,-0.86
2018-12-15T02:15:39.375Z,-0.85
2018-12-15T02:20:41.847Z,-0.84
2018-12-15T02:25:44.225Z,-0.84
2018-12-15T02:30:47.697Z,-0.86
2018-12-15T02:35:50.371Z,-0.86
2018-12-15T02:40:52.593Z,-0.84
2018-12-15T02:45:54.913Z,-0.85
2018-12-15T02:50:57.169Z,-0.84
2018-12-15T02:55:59.426Z,-0.83
2018-12-15T03:01:03.151Z,-0.82
2018-12-15T03:06:06.595Z,-0.80
2018-12-15T03:11:08.822Z,-0.81
2018-12-15T03:16:11.080Z,-0.83
2018-12-15T03:21:13.357Z,-0.83
2018-12-15T03:26:15.567Z,-0.84
2018-12-15T03:31:17.889Z,-0.86
2018-12-15T03:36:20.167Z,-0.85
2018-12-15T03:41:22.517Z,-0.86
2018-12-15T03:46:25.797Z,-0.87
2018-12-15T03:51:28.149Z,-0.88
2018-12-15T03:56:31.125Z,-0.88
2018-12-15T04:01:33.634Z,-0.89
2018-12-15T04:06:35.951Z,-0.91
2018-12-15T04:11:38.202Z,-0.91
2018-12-15T04:16:40.661Z,-0.92
2018-12-15T04:21:42.887Z,-0.92
2018-12-15T04:26:45.124Z,-0.92
2018-12-15T04:31:49.432Z,-0.93
2018-12-15T04:36:51.632Z,-0.95
2018-12-15T04:41:53.843Z,-0.95
2018-12-15T04:46:56.538Z,-0.97
2018-12-15T04:51:58.721Z,-0.98
2018-12-15T04:57:00.913Z,-1.00
2018-12-15T05:02:03.419Z,-1.00
2018-12-15T05:07:05.744Z,-1.02
2018-12-15T05:12:08.055Z,-1.02
2018-12-15T05:17:10.475Z,-1.04
2018-12-15T05:22:13.238Z,-1.03
2018-12-15T05:27:15.801Z,-1.03
2018-12-15T05:32:18.077Z,-1.05
2018-12-15T05:37:20.351Z,-1.07
2018-12-15T05:42:22.594Z,-1.06
2018-12-15T05:47:24.840Z,-1.10
2018-12-15T05:52:27.213Z,-1.11
2018-12-15T05:57:29.471Z,-1.12
2018-12-15T06:02:32.159Z,-1.15
2018-12-15T06:07:34.562Z,-1.15
2018-12-15T06:12:36.928Z,-1.17
2018-12-15T06:17:39.519Z,-1.18
2018-12-15T06:22:41.724Z,-1.19
2018-12-15T06:27:44.079Z,-1.21
2018-12-15T06:32:46.420Z,-1.19
2018-12-15T06:37:48.779Z,-1.20
2018-12-15T06:42:53.249Z,-1.21
2018-12-15T06:47:55.451Z,-1.21
2018-12-15T06:52:58.504Z,-1.22
2018-12-15T06:58:00.825Z,-1.23
2018-12-15T07:03:03.062Z,-1.22
2018-12-15T07:08:05.343Z,-1.24
2018-12-15T07:13:07.685Z,-1.27
2018-12-15T07:18:11.232Z,-1.29
2018-12-15T07:23:13.549Z,-1.27
2018-12-15T07:28:15.917Z,-1.29
2018-12-15T07:33:18.158Z,-1.28
2018-12-15T07:38:20.430Z,-1.29
2018-12-15T07:43:22.703Z,-1.27
2018-12-15T07:48:24.978Z,-1.28
2018-12-15T07:53:27.467Z,-1.27
2018-12-15T07:58:29.776Z,-1.26
2018-12-15T08:03:32.023Z,-1.26
2018-12-15T08:08:34.347Z,-1.28
2018-12-15T08:13:36.848Z,-1.30
2018-12-15T08:18:39.118Z,-1.28
2018-12-15T08:23:41.791Z,-1.28
2018-12-15T08:28:44.191Z,-1.29
2018-12-15T08:33:46.785Z,-1.29
2018-12-15T08:38:49.164Z,-1.28
2018-12-15T08:43:52.014Z,-1.28
2018-12-15T08:48:54.249Z,-1.28
2018-12-15T08:53:56.510Z,-1.26
2018-12-15T08:58:58.748Z,-1.22
2018-12-15T09:04:00.994Z,-1.20
2018-12-15T09:09:05.409Z,-1.20
2018-12-15T09:14:07.842Z,-1.20
2018-12-15T09:19:11.386Z,-1.21
2018-12-15T09:24:14.054Z,-1.19
2018-12-15T09:29:17.168Z,-1.20
2018-12-15T09:34:19.846Z,-1.20
2018-12-15T09:39:22.118Z,-1.19
2018-12-15T09:44:24.358Z,-1.17
2018-12-15T09:49:26.729Z,-1.19
2018-12-15T09:54:29.125Z,-1.16
2018-12-15T09:59:33.109Z,-1.14
2018-12-15T10:04:35.468Z,-1.15
2018-12-15T10:09:38.112Z,-1.17
2018-12-15T10:14:40.484Z,-1.17
2018-12-15T10:19:43.191Z,-1.16
2018-12-15T10:24:45.418Z,-1.10
2018-12-15T10:29:53.553Z,-1.10
2018-12-15T10:34:55.961Z,-1.10
2018-12-15T10:39:58.377Z,-1.04
2018-12-15T10:45:00.647Z,-1.05
2018-12-15T10:50:03.602Z,-1.02
2018-12-15T10:55:09.308Z,-0.99
2018-12-15T11:00:19.052Z,-0.94
2018-12-15T11:05:23.723Z,-0.86
2018-12-15T11:10:26.045Z,-0.78
2018-12-15T11:15:28.371Z,-0.68
2018-12-15T11:20:30.621Z,-0.57
2018-12-15T11:25:32.888Z,-0.56
2018-12-15T11:30:35.279Z,-0.48
2018-12-15T11:35:37.502Z,-0.44
2018-12-15T11:40:40.361Z,-0.48
2018-12-15T11:45:42.729Z,-0.56
2018-12-15T11:50:45.003Z,-0.62
2018-12-15T11:55:47.229Z,-0.60
2018-12-15T12:00:49.497Z,-0.56
2018-12-15T12:05:51.798Z,-0.57
2018-12-15T12:10:55.194Z,-0.64
2018-12-15T12:15:57.717Z,-0.63
2018-12-15T12:21:00.793Z,-0.62
2018-12-15T12:26:03.093Z,-0.72
2018-12-15T12:31:05.389Z,-0.77
2018-12-15T12:36:07.638Z,-0.77
2018-12-15T12:41:11.005Z,-0.79
2018-12-15T12:46:15.065Z,-0.83
2018-12-15T12:51:17.741Z,-0.88
2018-12-15T12:56:22.842Z,-0.90
2018-12-15T13:01:25.259Z,-0.88
2018-12-15T13:06:27.508Z,-0.87
2018-12-15T13:11:32.806Z,-0.90
2018-12-15T13:16:35.134Z,-0.89
2018-12-15T13:21:37.527Z,-0.88
2018-12-15T13:26:39.864Z,-0.91
2018-12-15T13:31:42.538Z,-0.90
2018-12-15T13:36:45.022Z,-0.89
2018-12-15T13:41:47.814Z,-0.87
2018-12-15T13:46:50.676Z,-0.86
2018-12-15T13:51:53.275Z,-0.91
2018-12-15T13:56:55.587Z,-0.93
2018-12-15T14:01:57.983Z,-0.90
2018-12-15T14:07:00.289Z,-0.90
2018-12-15T14:12:02.548Z,-0.94
2018-12-15T14:17:04.874Z,-0.97
2018-12-15T14:22:07.229Z,-1.01
2018-12-15T14:27:09.502Z,-1.03
2018-12-15T14:32:11.738Z,-1.06
2018-12-15T14:37:13.961Z,-1.09
2018-12-15T14:42:16.261Z,-1.09
2018-12-15T14:47:18.591Z,-1.12
2018-12-15T14:52:20.819Z,-1.16
2018-12-15T14:57:24.966Z,-1.16
2018-12-15T15:02:27.203Z,-1.14
2018-12-15T15:07:29.489Z,-1.11
2018-12-15T15:12:31.709Z,-1.12
2018-12-15T15:17:34.038Z,-1.15
2018-12-15T15:22:36.437Z,-1.19
2018-12-15T15:27:38.697Z,-1.19
2018-12-15T15:32:40.972Z,-1.21
2018-12-15T15:37:43.223Z,-1.18
2018-12-15T15:42:45.513Z,-1.20
2018-12-15T15:47:47.834Z,-1.19
2018-12-15T15:52:50.119Z,-1.20
2018-12-15T15:57:52.463Z,-1.21
2018-12-15T16:02:55.764Z,-1.18
2018-12-15T16:07:58.014Z,-1.21
2018-12-15T16:13:00.267Z,-1.22
2018-12-15T16:18:02.714Z,-1.21
2018-12-15T16:23:05.094Z,-1.26
2018-12-15T16:28:07.564Z,-1.25
2018-12-15T16:33:09.821Z,-1.27
2018-12-15T16:38:12.149Z,-1.39
2018-12-15T16:43:14.392Z,-1.50
2018-12-15T16:48:16.846Z,-1.71
2018-12-15T16:53:19.088Z,-1.88
2018-12-15T16:58:21.359Z,-1.95
2018-12-15T17:03:30.388Z,-1.95
2018-12-15T17:08:28.958Z,-1.97
2018-12-15T17:13:31.212Z,-2.02
2018-12-15T17:18:33.567Z,-2.12
2018-12-15T17:23:37.147Z,-2.28
2018-12-15T17:28:39.464Z,-2.40
2018-12-15T17:33:41.727Z,-2.53
2018-12-15T17:38:44.105Z,-2.57
2018-12-15T17:43:46.354Z,-2.64
2018-12-15T17:48:48.749Z,-2.70
2018-12-15T17:53:51.102Z,-2.81
2018-12-15T17:58:53.389Z,-2.85
2018-12-15T18:03:55.719Z,-2.91
2018-12-15T18:08:57.992Z,-2.95
2018-12-15T18:14:00.238Z,-2.98
2018-12-15T18:19:02.523Z,-3.11
2018-12-15T18:24:04.800Z,-3.14
2018-12-15T18:29:07.749Z,-3.19
2018-12-15T18:34:09.998Z,-3.19
2018-12-15T18:39:12.561Z,-3.24
2018-12-15T18:44:14.813Z,-3.22
2018-12-15T18:49:17.070Z,-3.10
2018-12-15T18:54:19.389Z,-2.99
2018-12-15T18:59:22.037Z,-2.87
2018-12-15T19:04:24.281Z,-2.79
2018-12-15T19:09:26.586Z,-2.73
2018-12-15T19:14:28.909Z,-2.64
2018-12-15T19:19:31.162Z,-2.61
2018-12-15T19:24:33.421Z,-2.57
2018-12-15T19:29:35.734Z,-2.57
2018-12-15T19:34:37.988Z,-2.51
2018-12-15T19:39:40.253Z,-2.53
2018-12-15T19:44:42.556Z,-2.48
2018-12-15T19:49:44.818Z,-2.45
2018-12-15T19:54:47.081Z,-2.39
2018-12-15T19:59:49.461Z,-2.36
2018-12-15T20:04:51.855Z,-2.32
2018-12-15T20:09:54.071Z,-2.29
2018-12-15T20:14:56.365Z,-2.25
2018-12-15T20:19:58.646Z,-2.22
2018-12-15T20:25:00.944Z,-2.20
2018-12-15T20:30:04.089Z,-2.18
2018-12-15T20:35:06.894Z,-2.15
2018-12-15T20:40:09.383Z,-2.11
2018-12-15T20:45:11.788Z,-2.10
2018-12-15T20:50:14.222Z,-2.09
2018-12-15T20:55:16.537Z,-2.09
2018-12-15T21:00:18.898Z,-2.09
2018-12-15T21:05:21.438Z,-2.07
2018-12-15T21:10:23.677Z,-2.05
2018-12-15T21:15:28.802Z,-2.06
2018-12-15T21:20:31.047Z,-2.06
2018-12-15T21:25:34.679Z,-2.04
2018-12-15T21:30:36.946Z,-2.02
2018-12-15T21:35:39.206Z,-2.01
2018-12-15T21:40:41.535Z,-1.99
2018-12-15T21:45:43.817Z,-1.97
2018-12-15T21:50:46.038Z,-1.95
2018-12-15T21:55:48.332Z,-1.94
2018-12-15T22:00:51.677Z,-1.95
2018-12-15T22:05:54.036Z,-1.92
2018-12-15T22:10:56.431Z,-1.89
2018-12-15T22:15:58.714Z,-1.89
2018-12-15T22:21:01.140Z,-1.85
2018-12-15T22:26:03.630Z,-1.85
2018-12-15T22:31:05.904Z,-1.84
2018-12-15T22:36:08.351Z,-1.83
2018-12-15T22:41:10.670Z,-1.80
2018-12-15T22:46:13.057Z,-1.79
2018-12-15T22:51:15.364Z,-1.79
2018-12-15T22:56:24.545Z,-1.76
2018-12-15T23:01:28.885Z,-1.76
2018-12-15T23:06:39.927Z,-1.74
2018-12-15T23:11:42.204Z,-1.71
2018-12-15T23:16:44.615Z,-1.70
2018-12-15T23:21:46.846Z,-1.70
2018-12-15T23:26:49.126Z,-1.69
2018-12-15T23:31:51.432Z,-1.68
2018-12-15T23:36:53.702Z,-1.70
2018-12-15T23:41:56.076Z,-1.68
2018-12-15T23:46:58.318Z,-1.71
2018-12-15T23:52:00.551Z,-1.71
2018-12-15T23:57:02.971Z,-1.72
